createdAt,value
2018-09-12T00:00:10.309Z,85
2018-09-12T00:01:13.668Z,86
2018-09-12T00:02:16.591Z,85
2018-09-12T00:03:20.167Z,85
2018-09-12T00:04:23.274Z,86
2018-09-12T00:05:29.229Z,86
2018-09-12T00:06:33.001Z,85
2018-09-12T00:07:36.043Z,86
2018-09-12T00:08:40.072Z,86
2018-09-12T00:09:44.885Z,85
2018-09-12T00:10:48.167Z,85
2018-09-12T00:11:50.667Z,85
2018-09-12T00:12:54.210Z,85
2018-09-12T00:13:57.553Z,85
2018-09-12T00:15:01.528Z,85
2018-09-12T00:16:06.575Z,85
2018-09-12T00:17:09.070Z,85
2018-09-12T00:18:13.214Z,85
2018-09-12T00:19:16.702Z,85
2018-09-12T00:20:19.044Z,85
2018-09-12T00:21:22.872Z,85
2018-09-12T00:22:26.669Z,85
2018-09-12T00:23:31.502Z,85
2018-09-12T00:24:34.501Z,85
2018-09-12T00:25:39.424Z,86
2018-09-12T00:26:46.272Z,85
2018-09-12T00:27:51.973Z,86
2018-09-12T00:28:57.666Z,86
2018-09-12T00:30:00.904Z,86
2018-09-12T00:31:04.335Z,85
2018-09-12T00:32:08.752Z,85
2018-09-12T00:33:13.608Z,86
2018-09-12T00:34:17.491Z,86
2018-09-12T00:35:21.232Z,86
2018-09-12T00:36:23.602Z,86
2018-09-12T00:37:26.256Z,85
2018-09-12T00:38:29.049Z,85
2018-09-12T00:39:32.430Z,85
2018-09-12T00:40:38.374Z,85
2018-09-12T00:41:42.252Z,86
2018-09-12T00:42:45.910Z,86
2018-09-12T00:43:49.711Z,86
2018-09-12T00:44:54.171Z,86
2018-09-12T00:46:00.374Z,86
2018-09-12T00:47:03.362Z,86
2018-09-12T00:48:06.011Z,86
2018-09-12T00:49:08.213Z,86
2018-09-12T00:50:11.219Z,86
2018-09-12T00:51:15.984Z,86
2018-09-12T00:52:20.076Z,86
2018-09-12T00:53:23.073Z,86
2018-09-12T00:54:25.189Z,86
2018-09-12T00:55:27.297Z,86
2018-09-12T00:56:29.396Z,86
2018-09-12T00:57:31.507Z,86
2018-09-12T00:58:33.899Z,86
2018-09-12T00:59:36.004Z,86
2018-09-12T01:00:38.116Z,86
2018-09-12T01:01:40.225Z,86
2018-09-12T01:02:42.314Z,86
2018-09-12T01:03:44.437Z,86
2018-09-12T01:04:46.535Z,86
2018-09-12T01:05:48.641Z,86
2018-09-12T01:06:51.047Z,86
2018-09-12T01:07:53.166Z,86
2018-09-12T01:08:55.263Z,86
2018-09-12T01:09:57.659Z,86
2018-09-12T01:10:59.754Z,87
2018-09-12T01:12:01.869Z,86
2018-09-12T01:13:03.965Z,86
2018-09-12T01:14:06.360Z,87
2018-09-12T01:15:08.469Z,87
2018-09-12T01:16:10.563Z,87
2018-09-12T01:17:12.675Z,87
2018-09-12T01:18:14.786Z,87
2018-09-12T01:19:16.900Z,86
2018-09-12T01:20:18.994Z,87
2018-09-12T01:21:21.109Z,86
2018-09-12T01:22:23.210Z,86
2018-09-12T01:23:25.310Z,86
2018-09-12T01:24:27.718Z,86
2018-09-12T01:25:30.099Z,86
2018-09-12T01:26:32.211Z,86
2018-09-12T01:27:34.329Z,86
2018-09-12T01:28:36.436Z,86
2018-09-12T01:29:38.527Z,86
2018-09-12T01:30:40.637Z,86
2018-09-12T01:31:42.739Z,86
2018-09-12T01:32:44.844Z,86
2018-09-12T01:33:46.966Z,86
2018-09-12T01:34:49.455Z,86
2018-09-12T01:35:51.841Z,86
2018-09-12T01:36:54.259Z,86
2018-09-12T01:37:56.360Z,86
2018-09-12T01:38:58.764Z,86
2018-09-12T01:40:00.874Z,86
2018-09-12T01:41:02.967Z,86
2018-09-12T01:42:05.379Z,86
2018-09-12T01:43:07.482Z,86
2018-09-12T01:44:09.593Z,86
2018-09-12T01:45:12.375Z,86
2018-09-12T01:46:14.758Z,86
2018-09-12T01:47:16.864Z,87
2018-09-12T01:48:18.974Z,86
2018-09-12T01:49:21.074Z,86
2018-09-12T01:50:23.477Z,86
2018-09-12T01:51:25.583Z,86
2018-09-12T01:52:28.009Z,86
2018-09-12T01:53:30.413Z,86
2018-09-12T01:54:32.534Z,86
2018-09-12T01:55:34.631Z,86
2018-09-12T01:56:36.737Z,86
2018-09-12T01:57:38.864Z,86
2018-09-12T01:58:40.961Z,86
2018-09-12T01:59:43.063Z,86
2018-09-12T02:00:45.172Z,86
2018-09-12T02:01:47.280Z,86
2018-09-12T02:02:49.376Z,87
2018-09-12T02:03:52.166Z,86
2018-09-12T02:04:54.265Z,87
2018-09-12T02:05:56.369Z,87
2018-09-12T02:06:58.486Z,87
2018-09-12T02:08:00.593Z,86
2018-09-12T02:09:03.367Z,87
2018-09-12T02:10:05.490Z,87
2018-09-12T02:11:07.930Z,86
2018-09-12T02:12:10.029Z,87
2018-09-12T02:13:12.139Z,87
2018-09-12T02:14:14.232Z,87
2018-09-12T02:15:16.342Z,87
2018-09-12T02:16:18.448Z,87
2018-09-12T02:17:20.933Z,88
2018-09-12T02:18:23.318Z,88
2018-09-12T02:19:25.439Z,89
2018-09-12T02:20:27.855Z,89
2018-09-12T02:21:30.248Z,89
2018-09-12T02:22:32.353Z,90
2018-09-12T02:23:34.467Z,90
2018-09-12T02:24:36.570Z,90
2018-09-12T02:25:38.688Z,90
2018-09-12T02:26:40.775Z,90
2018-09-12T02:27:42.890Z,90
2018-09-12T02:28:44.991Z,90
2018-09-12T02:29:47.094Z,91
2018-09-12T02:30:49.502Z,92
2018-09-12T02:31:51.599Z,92
2018-09-12T02:32:53.711Z,92
2018-09-12T02:33:56.112Z,91
2018-09-12T02:34:59.511Z,91
2018-09-12T02:36:01.595Z,92
2018-09-12T02:37:03.997Z,92
2018-09-12T02:38:06.376Z,92
2018-09-12T02:39:08.877Z,92
2018-09-12T02:40:10.992Z,92
2018-09-12T02:41:13.697Z,92
2018-09-12T02:42:16.086Z,92
2018-09-12T02:43:18.212Z,92
2018-09-12T02:44:20.600Z,92
2018-09-12T02:45:22.991Z,92
2018-09-12T02:46:25.414Z,93
2018-09-12T02:47:27.897Z,93
2018-09-12T02:48:30.297Z,93
2018-09-12T02:49:32.397Z,93
2018-09-12T02:50:34.511Z,93
2018-09-12T02:51:36.990Z,93
2018-09-12T02:52:39.102Z,93
2018-09-12T02:53:41.203Z,93
2018-09-12T02:54:43.687Z,93
2018-09-12T02:55:45.807Z,93
2018-09-12T02:56:47.890Z,93
2018-09-12T02:57:49.992Z,93
2018-09-12T02:58:52.695Z,93
2018-09-12T02:59:55.105Z,93
2018-09-12T03:00:57.190Z,94
2018-09-12T03:01:59.296Z,94
2018-09-12T03:03:01.403Z,94
2018-09-12T03:04:03.783Z,94
2018-09-12T03:05:05.895Z,94
2018-09-12T03:06:08.004Z,94
2018-09-12T03:07:10.099Z,93
2018-09-12T03:08:12.494Z,93
2018-09-12T03:09:15.277Z,94
2018-09-12T03:10:17.385Z,94
2018-09-12T03:11:19.497Z,94
2018-09-12T03:12:22.285Z,94
2018-09-12T03:13:24.365Z,94
2018-09-12T03:14:27.047Z,94
2018-09-12T03:15:29.166Z,94
2018-09-12T03:16:31.546Z,93
2018-09-12T03:17:34.641Z,93
2018-09-12T03:18:36.754Z,93
2018-09-12T03:19:39.147Z,93
2018-09-12T03:20:41.849Z,93
2018-09-12T03:21:44.316Z,93
2018-09-12T03:22:46.419Z,93
2018-09-12T03:23:48.512Z,94
2018-09-12T03:24:50.938Z,94
2018-09-12T03:25:53.040Z,94
2018-09-12T03:26:55.143Z,94
2018-09-12T03:27:57.257Z,94
2018-09-12T03:28:59.344Z,94
2018-09-12T03:30:01.459Z,94
2018-09-12T03:31:03.844Z,94
2018-09-12T03:32:06.569Z,94
2018-09-12T03:33:09.247Z,94
2018-09-12T03:34:11.653Z,94
2018-09-12T03:35:13.752Z,94
2018-09-12T03:36:15.847Z,94
2018-09-12T03:37:17.962Z,94
2018-09-12T03:38:20.061Z,94
2018-09-12T03:39:22.155Z,94
2018-09-12T03:40:24.254Z,95
2018-09-12T03:41:27.059Z,95
2018-09-12T03:42:29.170Z,95
2018-09-12T03:43:31.563Z,95
2018-09-12T03:44:33.672Z,95
2018-09-12T03:45:36.061Z,95
2018-09-12T03:46:38.472Z,95
2018-09-12T03:47:41.258Z,95
2018-09-12T03:48:43.372Z,95
2018-09-12T03:49:45.853Z,96
2018-09-12T03:50:47.970Z,96
2018-09-12T03:51:50.071Z,96
2018-09-12T03:52:52.168Z,95
2018-09-12T03:53:54.594Z,96
2018-09-12T03:54:56.695Z,96
2018-09-12T03:55:58.794Z,96
2018-09-12T03:57:00.905Z,96
2018-09-12T03:58:03.004Z,96
2018-09-12T03:59:05.094Z,96
2018-09-12T04:00:07.513Z,96
2018-09-12T04:01:09.620Z,96
2018-09-12T04:02:12.020Z,96
2018-09-12T04:03:14.136Z,96
2018-09-12T04:04:16.241Z,97
2018-09-12T04:05:18.351Z,96
2018-09-12T04:06:20.443Z,96
2018-09-12T04:07:22.555Z,97
2018-09-12T04:08:24.656Z,97
2018-09-12T04:09:27.071Z,97
2018-09-12T04:10:29.483Z,97
2018-09-12T04:11:31.576Z,97
2018-09-12T04:12:33.690Z,97
2018-09-12T04:13:35.800Z,98
2018-09-12T04:14:37.901Z,97
2018-09-12T04:15:40.001Z,98
2018-09-12T04:16:42.143Z,97
2018-09-12T04:17:44.954Z,98
2018-09-12T04:18:47.379Z,97
2018-09-12T04:19:49.472Z,98
2018-09-12T04:20:51.867Z,97
2018-09-12T04:21:53.978Z,97
2018-09-12T04:22:56.067Z,97
2018-09-12T04:23:58.179Z,97
2018-09-12T04:25:00.585Z,97
2018-09-12T04:26:02.963Z,97
2018-09-12T04:27:05.079Z,97
2018-09-12T04:28:07.178Z,97
2018-09-12T04:29:09.279Z,97
2018-09-12T04:30:11.661Z,97
2018-09-12T04:31:14.065Z,97
2018-09-12T04:32:16.164Z,97
2018-09-12T04:33:18.266Z,97
2018-09-12T04:34:20.378Z,97
2018-09-12T04:35:22.480Z,97
2018-09-12T04:36:25.194Z,97
2018-09-12T04:37:27.296Z,97
2018-09-12T04:38:29.401Z,97
2018-09-12T04:39:31.492Z,97
2018-09-12T04:40:33.609Z,97
2018-09-12T04:41:35.712Z,97
2018-09-12T04:42:37.874Z,97
2018-09-12T04:43:39.932Z,97
2018-09-12T04:44:42.026Z,97
2018-09-12T04:45:44.570Z,97
2018-09-12T04:46:46.691Z,97
2018-09-12T04:47:48.796Z,97
2018-09-12T04:48:50.888Z,97
2018-09-12T04:49:52.998Z,97
2018-09-12T04:50:55.674Z,97
2018-09-12T04:51:57.770Z,98
2018-09-12T04:53:00.200Z,98
2018-09-12T04:54:02.645Z,98
2018-09-12T04:55:04.757Z,98
2018-09-12T04:56:06.854Z,99
2018-09-12T04:57:08.959Z,99
2018-09-12T04:58:11.355Z,99
2018-09-12T04:59:13.451Z,99
2018-09-12T05:00:15.877Z,99
2018-09-12T05:01:18.287Z,99
2018-09-12T05:02:21.059Z,99
2018-09-12T05:03:23.157Z,100
2018-09-12T05:04:26.039Z,100
2018-09-12T05:05:28.109Z,100
2018-09-12T05:06:30.906Z,100
2018-09-12T05:07:33.017Z,100
2018-09-12T05:08:35.394Z,100
2018-09-12T05:09:37.808Z,100
2018-09-12T05:10:40.204Z,100
2018-09-12T05:11:42.320Z,100
2018-09-12T05:12:44.796Z,100
2018-09-12T05:13:46.910Z,100
2018-09-12T05:14:49.006Z,100
2018-09-12T05:15:51.164Z,100
2018-09-12T05:16:53.227Z,100
2018-09-12T05:17:55.604Z,100
2018-09-12T05:18:57.707Z,100
2018-09-12T05:19:59.823Z,100
2018-09-12T05:21:02.337Z,100
2018-09-12T05:22:04.432Z,100
2018-09-12T05:23:06.539Z,100
2018-09-12T05:24:08.634Z,100
2018-09-12T05:25:11.036Z,100
2018-09-12T05:26:13.439Z,100
2018-09-12T05:27:16.223Z,100
2018-09-12T05:28:18.312Z,100
2018-09-12T05:29:20.438Z,100
2018-09-12T05:30:22.526Z,100
2018-09-12T05:31:25.013Z,100
2018-09-12T05:32:27.117Z,100
2018-09-12T05:33:29.207Z,100
2018-09-12T05:34:31.312Z,100
2018-09-12T05:35:33.807Z,100
2018-09-12T05:36:35.920Z,100
2018-09-12T05:37:38.007Z,100
2018-09-12T05:38:40.122Z,100
2018-09-12T05:39:42.535Z,100
2018-09-12T05:40:44.628Z,100
2018-09-12T05:41:46.744Z,100
2018-09-12T05:42:48.841Z,100
2018-09-12T05:43:50.948Z,100
2018-09-12T05:44:53.039Z,100
2018-09-12T05:45:55.155Z,100
2018-09-12T05:46:57.551Z,100
2018-09-12T05:48:00.062Z,100
2018-09-12T05:49:02.560Z,100
2018-09-12T05:50:04.738Z,100
2018-09-12T05:51:06.756Z,100
2018-09-12T05:52:08.859Z,99
2018-09-12T05:53:11.257Z,99
2018-09-12T05:54:13.356Z,99
2018-09-12T05:55:15.784Z,99
2018-09-12T05:56:17.881Z,99
2018-09-12T05:57:19.989Z,99
2018-09-12T05:58:22.092Z,100
2018-09-12T05:59:24.582Z,100
2018-09-12T06:00:26.686Z,100
2018-09-12T06:01:28.793Z,100
2018-09-12T06:02:30.882Z,100
2018-09-12T06:03:32.992Z,100
2018-09-12T06:04:35.098Z,100
2018-09-12T06:05:37.484Z,100
2018-09-12T06:06:39.635Z,100
2018-09-12T06:07:41.698Z,100
2018-09-12T06:08:44.085Z,100
2018-09-12T06:09:46.184Z,100
2018-09-12T06:10:48.284Z,100
2018-09-12T06:11:50.394Z,100
2018-09-12T06:12:52.492Z,100
2018-09-12T06:13:54.593Z,100
2018-09-12T06:14:56.706Z,100
2018-09-12T06:15:58.798Z,100
2018-09-12T06:17:01.298Z,100
2018-09-12T06:18:03.403Z,100
2018-09-12T06:19:05.516Z,100
2018-09-12T06:20:07.609Z,100
2018-09-12T06:21:09.718Z,100
2018-09-12T06:22:11.835Z,100
2018-09-12T06:23:13.918Z,100
2018-09-12T06:24:16.325Z,100
2018-09-12T06:25:18.725Z,100
2018-09-12T06:26:20.822Z,100
2018-09-12T06:27:22.919Z,100
2018-09-12T06:28:25.324Z,100
2018-09-12T06:29:27.420Z,100
2018-09-12T06:30:29.532Z,100
2018-09-12T06:31:31.640Z,100
2018-09-12T06:32:33.731Z,100
2018-09-12T06:33:35.837Z,100
2018-09-12T06:34:37.950Z,100
2018-09-12T06:35:40.040Z,100
2018-09-12T06:36:42.154Z,100
2018-09-12T06:37:44.649Z,100
2018-09-12T06:38:47.081Z,100
2018-09-12T06:39:49.160Z,100
2018-09-12T06:40:51.557Z,100
2018-09-12T06:41:53.956Z,100
2018-09-12T06:42:56.052Z,100
2018-09-12T06:43:58.171Z,100
2018-09-12T06:45:00.265Z,100
2018-09-12T06:46:02.658Z,100
2018-09-12T06:47:05.062Z,100
2018-09-12T06:48:07.164Z,100
2018-09-12T06:49:09.255Z,100
2018-09-12T06:50:11.364Z,100
2018-09-12T06:51:13.463Z,100
2018-09-12T06:52:15.981Z,100
2018-09-12T06:53:18.080Z,100
2018-09-12T06:54:20.183Z,100
2018-09-12T06:55:22.296Z,100
2018-09-12T06:56:24.394Z,100
2018-09-12T06:57:26.820Z,100
2018-09-12T06:58:28.928Z,100
2018-09-12T06:59:31.022Z,100
2018-09-12T07:00:33.469Z,100
2018-09-12T07:01:35.844Z,100
2018-09-12T07:02:37.940Z,100
2018-09-12T07:03:40.355Z,100
2018-09-12T07:04:42.744Z,100
2018-09-12T07:05:44.836Z,100
2018-09-12T07:06:46.938Z,100
2018-09-12T07:07:49.056Z,100
2018-09-12T07:08:51.146Z,100
2018-09-12T07:09:53.543Z,100
2018-09-12T07:10:55.652Z,100
2018-09-12T07:11:57.748Z,100
2018-09-12T07:12:59.868Z,100
2018-09-12T07:14:02.023Z,100
2018-09-12T07:15:04.457Z,100
2018-09-12T07:16:06.548Z,100
2018-09-12T07:17:08.958Z,100
2018-09-12T07:18:11.350Z,100
2018-09-12T07:19:13.746Z,100
2018-09-12T07:20:15.859Z,100
2018-09-12T07:21:17.947Z,100
2018-09-12T07:22:20.068Z,100
2018-09-12T07:23:22.169Z,100
2018-09-12T07:24:24.340Z,100
2018-09-12T07:25:27.045Z,100
2018-09-12T07:26:29.155Z,100
2018-09-12T07:27:31.898Z,100
2018-09-12T07:28:33.956Z,100
2018-09-12T07:29:36.062Z,100
2018-09-12T07:30:38.190Z,100
2018-09-12T07:31:40.301Z,100
2018-09-12T07:32:42.781Z,100
2018-09-12T07:33:44.884Z,100
2018-09-12T07:34:47.313Z,100
2018-09-12T07:35:49.414Z,100
2018-09-12T07:36:51.828Z,100
2018-09-12T07:37:53.942Z,100
2018-09-12T07:38:56.640Z,100
2018-09-12T07:39:58.750Z,100
2018-09-12T07:41:01.255Z,100
2018-09-12T07:42:03.639Z,100
2018-09-12T07:43:05.751Z,100
2018-09-12T07:44:08.154Z,100
2018-09-12T07:45:10.250Z,100
2018-09-12T07:46:12.371Z,100
2018-09-12T07:47:14.757Z,100
2018-09-12T07:48:16.860Z,100
2018-09-12T07:49:18.953Z,100
2018-09-12T07:50:21.071Z,100
2018-09-12T07:51:23.463Z,100
2018-09-12T07:52:25.583Z,99
2018-09-12T07:53:27.982Z,99
2018-09-12T07:54:30.072Z,99
2018-09-12T07:55:32.187Z,99
2018-09-12T07:56:34.984Z,99
2018-09-12T07:57:37.408Z,100
2018-09-12T07:58:39.783Z,100
2018-09-12T07:59:42.191Z,99
2018-09-12T08:00:44.361Z,98
2018-09-12T08:01:46.392Z,99
2018-09-12T08:02:48.502Z,99
2018-09-12T08:03:50.603Z,98
2018-09-12T08:04:52.716Z,98
2018-09-12T08:05:55.279Z,98
2018-09-12T08:06:57.772Z,98
2018-09-12T08:07:59.860Z,97
2018-09-12T08:09:01.969Z,96
2018-09-12T08:10:04.068Z,96
2018-09-12T08:11:06.171Z,96
2018-09-12T08:12:08.329Z,95
2018-09-12T08:13:10.796Z,96
2018-09-12T08:14:12.886Z,95
2018-09-12T08:15:15.002Z,94
2018-09-12T08:16:17.500Z,94
2018-09-12T08:17:19.595Z,94
2018-09-12T08:18:21.700Z,94
2018-09-12T08:19:23.799Z,93
2018-09-12T08:20:26.232Z,95
2018-09-12T08:21:28.331Z,96
2018-09-12T08:22:30.441Z,96
2018-09-12T08:23:32.531Z,96
2018-09-12T08:24:35.258Z,95
2018-09-12T08:25:37.362Z,95
2018-09-12T08:26:39.481Z,95
2018-09-12T08:27:41.894Z,96
2018-09-12T08:28:43.994Z,96
2018-09-12T08:29:46.100Z,97
2018-09-12T08:30:48.205Z,98
2018-09-12T08:31:50.321Z,95
2018-09-12T08:32:52.420Z,94
2018-09-12T08:33:54.528Z,95
2018-09-12T08:34:56.637Z,95
2018-09-12T08:35:58.740Z,95
2018-09-12T08:37:00.851Z,96
2018-09-12T08:38:02.954Z,95
2018-09-12T08:39:05.048Z,94
2018-09-12T08:40:07.152Z,94
2018-09-12T08:41:09.270Z,95
2018-09-12T08:42:11.822Z,94
2018-09-12T08:43:13.911Z,96
2018-09-12T08:44:16.016Z,95
2018-09-12T08:45:18.132Z,95
2018-09-12T08:46:20.529Z,95
2018-09-12T08:47:22.913Z,94
2018-09-12T08:48:25.028Z,94
2018-09-12T08:49:27.125Z,95
2018-09-12T08:50:29.618Z,96
2018-09-12T08:51:31.725Z,96
2018-09-12T08:52:33.815Z,95
2018-09-12T08:53:36.320Z,96
2018-09-12T08:54:38.426Z,96
2018-09-12T08:55:40.826Z,96
2018-09-12T08:56:42.946Z,96
2018-09-12T08:57:45.042Z,96
2018-09-12T08:58:47.142Z,96
2018-09-12T08:59:49.232Z,97
2018-09-12T09:00:51.346Z,96
2018-09-12T09:01:53.440Z,96
2018-09-12T09:02:55.844Z,96
2018-09-12T09:03:57.952Z,97
2018-09-12T09:05:00.401Z,98
2018-09-12T09:06:02.890Z,97
2018-09-12T09:07:05.000Z,99
2018-09-12T09:08:07.392Z,98
2018-09-12T09:09:09.482Z,97
2018-09-12T09:10:11.592Z,97
2018-09-12T09:11:13.692Z,98
2018-09-12T09:12:15.788Z,98
2018-09-12T09:13:17.883Z,98
2018-09-12T09:14:19.999Z,98
2018-09-12T09:15:22.095Z,98
2018-09-12T09:16:24.212Z,98
2018-09-12T09:17:26.385Z,97
2018-09-12T09:18:28.416Z,97
2018-09-12T09:19:31.097Z,98
2018-09-12T09:20:33.199Z,98
2018-09-12T09:21:35.290Z,98
2018-09-12T09:22:37.403Z,97
2018-09-12T09:23:39.556Z,98
2018-09-12T09:24:41.604Z,97
2018-09-12T09:25:44.007Z,98
2018-09-12T09:26:46.105Z,98
2018-09-12T09:27:48.208Z,98
2018-09-12T09:28:50.300Z,98
2018-09-12T09:29:52.424Z,98
2018-09-12T09:30:54.804Z,98
2018-09-12T09:31:56.910Z,98
2018-09-12T09:32:59.020Z,98
2018-09-12T09:34:01.109Z,99
2018-09-12T09:35:03.636Z,99
2018-09-12T09:36:06.402Z,98
2018-09-12T09:37:08.506Z,98
2018-09-12T09:38:10.594Z,97
2018-09-12T09:39:12.998Z,98
2018-09-12T09:40:15.693Z,98
2018-09-12T09:41:17.791Z,97
2018-09-12T09:42:20.197Z,97
2018-09-12T09:43:22.295Z,96
2018-09-12T09:44:24.692Z,97
2018-09-12T09:45:27.506Z,96
2018-09-12T09:46:29.608Z,96
2018-09-12T09:47:31.701Z,97
2018-09-12T09:48:34.204Z,95
2018-09-12T09:49:36.299Z,96
2018-09-12T09:50:38.690Z,96
2018-09-12T09:51:40.801Z,96
2018-09-12T09:52:42.899Z,95
2018-09-12T09:53:44.995Z,96
2018-09-12T09:54:47.268Z,96
2018-09-12T09:55:49.214Z,97
2018-09-12T09:56:51.310Z,97
2018-09-12T09:57:53.407Z,97
2018-09-12T09:58:55.821Z,96
2018-09-12T09:59:57.922Z,96
2018-09-12T10:01:00.024Z,95
2018-09-12T10:02:02.119Z,95
2018-09-12T10:03:04.541Z,94
2018-09-12T10:04:06.648Z,94
2018-09-12T10:05:08.766Z,94
2018-09-12T10:06:10.877Z,94
2018-09-12T10:07:12.972Z,93
2018-09-12T10:08:15.087Z,92
2018-09-12T10:09:17.200Z,92
2018-09-12T10:10:19.626Z,93
2018-09-12T10:11:21.718Z,93
2018-09-12T10:12:23.840Z,93
2018-09-12T10:13:25.956Z,92
2018-09-12T10:14:28.058Z,92
2018-09-12T10:15:30.488Z,91
2018-09-12T10:16:32.908Z,91
2018-09-12T10:17:35.019Z,90
2018-09-12T10:18:37.421Z,91
2018-09-12T10:19:39.821Z,89
2018-09-12T10:20:41.921Z,90
2018-09-12T10:21:44.033Z,91
2018-09-12T10:22:46.135Z,90
2018-09-12T10:23:48.532Z,88
2018-09-12T10:24:50.656Z,90
2018-09-12T10:25:52.760Z,91
2018-09-12T10:26:54.860Z,92
2018-09-12T10:27:56.984Z,89
2018-09-12T10:28:59.083Z,88
2018-09-12T10:30:01.193Z,89
2018-09-12T10:31:03.590Z,89
2018-09-12T10:32:05.974Z,90
2018-09-12T10:33:08.378Z,90
2018-09-12T10:34:10.491Z,90
2018-09-12T10:35:12.602Z,91
2018-09-12T10:36:14.986Z,90
2018-09-12T10:37:17.134Z,91
2018-09-12T10:38:19.246Z,90
2018-09-12T10:39:22.032Z,89
2018-09-12T10:40:24.455Z,90
2018-09-12T10:41:26.565Z,88
2018-09-12T10:42:28.677Z,88
2018-09-12T10:43:30.779Z,88
2018-09-12T10:44:32.896Z,90
2018-09-12T10:45:34.996Z,88
2018-09-12T10:46:37.107Z,88
2018-09-12T10:47:39.231Z,89
2018-09-12T10:48:41.324Z,89
2018-09-12T10:49:43.837Z,87
2018-09-12T10:50:45.937Z,87
2018-09-12T10:51:48.033Z,86
2018-09-12T10:52:50.831Z,87
2018-09-12T10:53:53.246Z,86
2018-09-12T10:54:55.350Z,85
2018-09-12T10:55:57.459Z,85
2018-09-12T10:56:59.573Z,85
2018-09-12T10:58:01.675Z,86
2018-09-12T10:59:04.144Z,85
2018-09-12T11:00:06.188Z,86
2018-09-12T11:01:08.279Z,85
2018-09-12T11:02:10.405Z,85
2018-09-12T11:03:12.515Z,84
2018-09-12T11:04:14.628Z,86
2018-09-12T11:05:16.736Z,86
2018-09-12T11:06:18.834Z,82
2018-09-12T11:07:21.241Z,82
2018-09-12T11:08:23.354Z,81
2018-09-12T11:09:25.477Z,81
2018-09-12T11:10:27.587Z,81
2018-09-12T11:11:29.700Z,81
2018-09-12T11:12:31.821Z,79
2018-09-12T11:13:33.926Z,79
2018-09-12T11:14:36.023Z,79
2018-09-12T11:15:38.131Z,80
2018-09-12T11:16:40.233Z,79
2018-09-12T11:17:43.133Z,80
2018-09-12T11:18:45.231Z,82
2018-09-12T11:19:47.342Z,81
2018-09-12T11:20:49.460Z,80
2018-09-12T11:21:52.231Z,78
2018-09-12T11:22:54.355Z,79
2018-09-12T11:23:56.550Z,80
2018-09-12T11:24:58.563Z,80
2018-09-12T11:26:00.666Z,80
2018-09-12T11:27:02.785Z,79
2018-09-12T11:28:04.888Z,81
2018-09-12T11:29:07.006Z,82
2018-09-12T11:30:09.864Z,82
2018-09-12T11:31:11.959Z,83
2018-09-12T11:32:14.382Z,82
2018-09-12T11:33:16.499Z,80
2018-09-12T11:34:19.067Z,80
2018-09-12T11:35:21.166Z,80
2018-09-12T11:36:23.568Z,80
2018-09-12T11:37:25.956Z,80
2018-09-12T11:38:28.755Z,79
2018-09-12T11:39:30.853Z,81
2018-09-12T11:40:33.257Z,81
2018-09-12T11:41:35.357Z,82
2018-09-12T11:42:37.768Z,83
2018-09-12T11:43:39.863Z,84
2018-09-12T11:44:41.973Z,83
2018-09-12T11:45:44.085Z,82
2018-09-12T11:46:46.177Z,84
2018-09-12T11:47:48.294Z,83
2018-09-12T11:48:51.075Z,84
2018-09-12T11:49:53.189Z,83
2018-09-12T11:50:55.570Z,83
2018-09-12T11:51:57.687Z,84
2018-09-12T11:52:59.794Z,85
2018-09-12T11:54:02.300Z,84
2018-09-12T11:55:05.016Z,85
2018-09-12T11:56:07.529Z,86
2018-09-12T11:57:09.633Z,87
2018-09-12T11:58:11.725Z,87
2018-09-12T11:59:14.116Z,85
2018-09-12T12:00:16.232Z,87
2018-09-12T12:01:18.642Z,87
2018-09-12T12:02:21.420Z,87
2018-09-12T12:03:24.540Z,88
2018-09-12T12:04:26.635Z,89
2018-09-12T12:05:28.738Z,90
2018-09-12T12:06:31.140Z,90
2018-09-12T12:07:33.235Z,91
2018-09-12T12:08:35.351Z,91
2018-09-12T12:09:37.750Z,91
2018-09-12T12:10:40.140Z,91
2018-09-12T12:11:42.256Z,91
2018-09-12T12:12:44.643Z,91
2018-09-12T12:13:46.745Z,90
2018-09-12T12:14:49.142Z,91
2018-09-12T12:15:51.268Z,91
2018-09-12T12:16:53.361Z,92
2018-09-12T12:17:56.161Z,93
2018-09-12T12:18:58.272Z,93
2018-09-12T12:20:00.370Z,93
2018-09-12T12:21:02.485Z,92
2018-09-12T12:22:04.589Z,92
2018-09-12T12:23:07.138Z,92
2018-09-12T12:24:09.595Z,91
2018-09-12T12:25:11.715Z,92
2018-09-12T12:26:13.820Z,92
2018-09-12T12:27:15.919Z,92
2018-09-12T12:28:18.035Z,91
2018-09-12T12:29:20.138Z,90
2018-09-12T12:30:22.251Z,90
2018-09-12T12:31:24.744Z,90
2018-09-12T12:32:26.852Z,90
2018-09-12T12:33:28.965Z,92
2018-09-12T12:34:31.066Z,92
2018-09-12T12:35:33.601Z,94
2018-09-12T12:36:35.644Z,93
2018-09-12T12:37:37.740Z,93
2018-09-12T12:38:39.843Z,93
2018-09-12T12:39:42.284Z,93
2018-09-12T12:40:44.386Z,94
2018-09-12T12:41:46.496Z,95
2018-09-12T12:42:48.897Z,96
2018-09-12T12:43:51.384Z,97
2018-09-12T12:44:53.798Z,97
2018-09-12T12:45:55.895Z,98
2018-09-12T12:46:58.012Z,99
2018-09-12T12:48:00.813Z,100
2018-09-12T12:49:02.942Z,100
2018-09-12T12:50:05.045Z,100
2018-09-12T12:51:07.156Z,100
2018-09-12T12:52:09.273Z,100
2018-09-12T12:53:11.372Z,100
2018-09-12T12:54:13.782Z,99
2018-09-12T12:55:15.891Z,99
2018-09-12T12:56:18.004Z,100
2018-09-12T12:57:20.392Z,99
2018-09-12T12:58:22.795Z,100
2018-09-12T12:59:24.898Z,100
2018-09-12T13:00:27.305Z,100
2018-09-12T13:01:29.707Z,100
2018-09-12T13:02:31.799Z,100
2018-09-12T13:03:34.190Z,100
2018-09-12T13:04:36.302Z,100
2018-09-12T13:05:38.818Z,100
2018-09-12T13:06:41.212Z,100
2018-09-12T13:07:43.321Z,100
2018-09-12T13:08:45.475Z,100
2018-09-12T13:09:47.584Z,100
2018-09-12T13:10:49.700Z,100
2018-09-12T13:11:51.809Z,100
2018-09-12T13:13:00.249Z,99
2018-09-12T13:14:09.169Z,99
2018-09-12T13:15:12.162Z,99
2018-09-12T13:16:14.360Z,99
2018-09-12T13:17:16.472Z,100
2018-09-12T13:18:18.567Z,100
2018-09-12T13:19:20.717Z,100
2018-09-12T13:20:22.819Z,100
2018-09-12T13:21:25.014Z,100
2018-09-12T13:22:27.041Z,100
2018-09-12T13:23:29.557Z,100
2018-09-12T13:24:33.788Z,100
2018-09-12T13:25:37.647Z,100
2018-09-12T13:26:41.688Z,100
2018-09-12T13:27:44.598Z,100
2018-09-12T13:28:48.182Z,100
2018-09-12T13:29:50.659Z,100
2018-09-12T13:30:57.336Z,100
2018-09-12T13:32:01.043Z,100
2018-09-12T13:33:04.722Z,100
2018-09-12T13:34:08.079Z,100
2018-09-12T13:35:11.349Z,99
2018-09-12T13:36:14.772Z,100
2018-09-12T13:37:18.611Z,100
2018-09-12T13:38:21.461Z,100
2018-09-12T13:39:25.231Z,100
2018-09-12T13:40:28.369Z,100
2018-09-12T13:41:31.710Z,100
2018-09-12T13:42:34.714Z,100
2018-09-12T13:43:37.665Z,100
2018-09-12T13:44:40.129Z,100
2018-09-12T13:45:44.148Z,100
2018-09-12T13:46:47.049Z,100
2018-09-12T13:47:50.304Z,100
2018-09-12T13:48:53.813Z,100
2018-09-12T13:49:58.640Z,100
2018-09-12T13:51:01.999Z,100
2018-09-12T13:52:05.641Z,100
2018-09-12T13:53:08.535Z,100
2018-09-12T13:54:14.596Z,100
2018-09-12T13:55:19.780Z,100
2018-09-12T13:56:23.139Z,100
2018-09-12T13:57:26.583Z,100
2018-09-12T13:58:28.865Z,100
2018-09-12T13:59:31.776Z,100
2018-09-12T14:00:34.450Z,100
2018-09-12T14:01:38.032Z,100
2018-09-12T14:02:41.337Z,100
2018-09-12T14:03:43.937Z,100
2018-09-12T14:04:46.446Z,100
2018-09-12T14:05:49.006Z,100
2018-09-12T14:06:51.422Z,100
2018-09-12T14:07:53.562Z,100
2018-09-12T14:08:55.988Z,99
2018-09-12T14:09:59.081Z,99
2018-09-12T14:11:01.762Z,100
2018-09-12T14:12:04.406Z,100
2018-09-12T14:13:07.667Z,100
2018-09-12T14:14:10.378Z,100
2018-09-12T14:15:13.103Z,100
2018-09-12T14:16:15.814Z,99
2018-09-12T14:17:18.323Z,99
2018-09-12T14:18:20.776Z,100
2018-09-12T14:19:23.893Z,100
2018-09-12T14:20:26.527Z,99
2018-09-12T14:21:29.007Z,99
2018-09-12T14:22:31.495Z,99
2018-09-12T14:23:34.396Z,100
2018-09-12T14:24:37.047Z,100
2018-09-12T14:25:39.958Z,98
2018-09-12T14:26:42.734Z,98
2018-09-12T14:27:45.245Z,98
2018-09-12T14:28:47.962Z,97
2018-09-12T14:29:50.435Z,97
2018-09-12T14:30:53.138Z,99
2018-09-12T14:31:56.240Z,99
2018-09-12T14:32:59.000Z,98
2018-09-12T14:34:02.388Z,100
2018-09-12T14:35:05.505Z,100
2018-09-12T14:36:08.361Z,100
2018-09-12T14:37:11.111Z,100
2018-09-12T14:38:14.302Z,100
2018-09-12T14:39:17.565Z,100
2018-09-12T14:40:20.081Z,100